Time;durP1;ratioP1;P1;durP2;ratioP2;P2;SDS_P1;SDS_P2;PMS_P1;PMS_P2;Temp;Humidity;BMP_temperature;BMP_pressure;BME280_temperature;BME280_humidity;BME280_pressure;Samples;Min_cycle;Max_cycle;Signal;HPM_P1;HPM_P2
2021/07/10 00:02:22;;;;;;;16.80;10.23;;;;;;;11.38;100.00;94264.91;5136303;27;20559;-81
2021/07/10 00:04:49;;;;;;;20.57;10.63;;;;;;;11.32;100.00;94266.44;5135944;27;20208;-80
2021/07/10 00:07:15;;;;;;;17.53;10.73;;;;;;;11.28;100.00;94267.84;5136210;27;20277;-79
2021/07/10 00:09:42;;;;;;;19.50;10.97;;;;;;;11.33;100.00;94259.44;5136338;27;20200;-79
2021/07/10 00:12:08;;;;;;;15.47;10.93;;;;;;;11.38;100.00;94252.63;5135907;27;20193;-80
2021/07/10 00:14:35;;;;;;;17.80;11.57;;;;;;;11.40;100.00;94258.47;5136021;27;20201;-80
2021/07/10 00:17:01;;;;;;;19.83;11.57;;;;;;;11.42;100.00;94246.03;5135954;27;20201;-81
2021/07/10 00:19:29;;;;;;;19.43;11.43;;;;;;;11.47;100.00;94242.81;5135852;27;20201;-79
2021/07/10 00:21:55;;;;;;;18.27;11.13;;;;;;;11.44;100.00;94243.19;5133377;27;20222;-78
2021/07/10 00:24:22;;;;;;;19.47;10.50;;;;;;;11.44;100.00;94237.97;5115355;28;20235;-76
2021/07/10 00:26:48;;;;;;;20.37;10.73;;;;;;;11.41;100.00;94231.31;5115165;28;20633;-80
2021/07/10 00:29:16;;;;;;;18.53;10.87;;;;;;;11.38;100.00;94236.13;5128786;27;20239;-78
2021/07/10 00:31:43;;;;;;;18.17;10.60;;;;;;;11.38;100.00;94228.28;5132015;27;20207;-78
2021/07/10 00:34:09;;;;;;;15.73;9.83;;;;;;;11.29;100.00;94235.47;5133953;27;20277;-79
2021/07/10 00:36:38;;;;;;;19.17;10.10;;;;;;;11.24;100.00;94237.84;5135716;27;20204;-80
2021/07/10 00:39:05;;;;;;;18.17;10.80;;;;;;;11.24;100.00;94222.16;5135623;27;20224;-79
2021/07/10 00:41:31;;;;;;;18.20;10.37;;;;;;;11.23;100.00;94223.19;5139604;27;20229;-79
2021/07/10 00:43:58;;;;;;;23.43;12.67;;;;;;;11.24;100.00;94230.00;5156053;27;20241;-79
2021/07/10 00:46:24;;;;;;;16.87;10.80;;;;;;;11.23;100.00;94217.97;5155887;27;20216;-80
2021/07/10 00:48:51;;;;;;;18.23;11.80;;;;;;;11.23;100.00;94215.34;5155934;27;20666;-78
2021/07/10 00:51:19;;;;;;;20.00;11.80;;;;;;;11.23;100.00;94212.75;5156170;27;20200;-79
2021/07/10 00:53:47;;;;;;;20.07;11.33;;;;;;;11.22;100.00;94208.50;5155390;27;20291;-79
2021/07/10 00:56:14;;;;;;;21.00;12.37;;;;;;;11.29;100.00;94209.34;5156025;27;20200;-79
2021/07/10 00:58:41;;;;;;;19.60;12.77;;;;;;;11.22;100.00;94219.75;5156048;27;20192;-79
2021/07/10 01:01:09;;;;;;;20.67;12.70;;;;;;;11.27;100.00;94212.16;5155656;27;20711;-80
2021/07/10 01:03:39;;;;;;;20.30;12.93;;;;;;;11.25;100.00;94201.06;5155711;27;20215;-78
2021/07/10 01:06:06;;;;;;;22.37;13.37;;;;;;;11.23;100.00;94197.06;5155736;27;20604;-78
2021/07/10 01:08:34;;;;;;;22.73;12.73;;;;;;;11.22;100.00;94203.28;5155636;27;20206;-80
2021/07/10 01:11:03;;;;;;;21.60;12.73;;;;;;;11.20;100.00;94200.06;5155561;27;20231;-79
2021/07/10 01:13:29;;;;;;;23.03;12.83;;;;;;;11.22;100.00;94192.81;5155440;27;20604;-80
2021/07/10 01:15:57;;;;;;;20.50;12.67;;;;;;;11.13;100.00;94196.59;5155515;27;20620;-80
2021/07/10 01:18:23;;;;;;;27.40;12.43;;;;;;;11.08;100.00;94197.97;5155613;27;20195;-80
2021/07/10 01:20:52;;;;;;;21.33;13.03;;;;;;;11.09;100.00;94189.16;5155433;27;20211;-79
2021/07/10 01:23:19;;;;;;;22.47;13.93;;;;;;;11.09;100.00;94186.53;5155242;27;20571;-79
2021/07/10 01:25:46;;;;;;;21.47;13.83;;;;;;;11.18;100.00;94181.16;5138128;27;20203;-78
2021/07/10 01:28:13;;;;;;;23.13;12.77;;;;;;;11.10;100.00;94175.06;5134067;27;20223;-78
2021/07/10 01:30:40;;;;;;;27.10;14.80;;;;;;;11.07;100.00;94175.47;5134709;27;20205;-79
2021/07/10 01:33:07;;;;;;;22.33;13.67;;;;;;;11.01;100.00;94171.00;5134519;27;20245;-80
2021/07/10 01:35:34;;;;;;;21.13;13.63;;;;;;;11.02;100.00;94177.84;5134331;27;20201;-79
2021/07/10 01:38:05;;;;;;;31.93;15.30;;;;;;;11.04;100.00;94175.88;5134478;27;20196;-79
2021/07/10 01:40:32;;;;;;;32.27;17.97;;;;;;;11.16;100.00;94175.28;5134362;27;20559;-80
2021/07/10 01:43:02;;;;;;;30.90;18.20;;;;;;;11.18;100.00;94175.94;5134203;27;20575;-80
2021/07/10 01:45:29;;;;;;;37.57;19.03;;;;;;;11.20;100.00;94174.72;5134436;27;20200;-80
2021/07/10 01:47:55;;;;;;;32.57;18.13;;;;;;;11.20;100.00;94172.09;5134319;27;20232;-80
2021/07/10 01:50:22;;;;;;;35.57;18.10;;;;;;;11.18;100.00;94170.69;5134236;27;20200;-82
2021/07/10 01:52:49;;;;;;;32.50;18.30;;;;;;;11.22;100.00;94174.53;5134174;27;20266;-81
2021/07/10 01:55:17;;;;;;;32.17;17.37;;;;;;;11.21;100.00;94170.31;5133975;27;20220;-81
2021/07/10 01:57:46;;;;;;;32.03;16.83;;;;;;;11.11;100.00;94166.25;5134220;27;20675;-81
2021/07/10 02:00:15;;;;;;;27.60;16.30;;;;;;;11.04;100.00;94165.41;5134456;27;20201;-81
2021/07/10 02:02:42;;;;;;;34.77;19.37;;;;;;;11.06;100.00;94168.63;5135256;27;20245;-80
2021/07/10 02:05:09;;;;;;;35.57;19.60;;;;;;;11.16;100.00;94167.44;5134756;27;20207;-79
2021/07/10 02:07:36;;;;;;;39.70;20.73;;;;;;;11.19;100.00;94162.66;5133855;27;20229;-79
2021/07/10 02:10:05;;;;;;;41.07;18.73;;;;;;;11.18;100.00;94160.25;5133887;28;20212;-80
2021/07/10 02:12:33;;;;;;;37.83;20.53;;;;;;;11.19;100.00;94157.44;5133873;28;20201;-80
2021/07/10 02:15:00;;;;;;;36.57;19.50;;;;;;;11.15;100.00;94161.44;5133975;28;20197;-79
2021/07/10 02:17:26;;;;;;;40.93;20.73;;;;;;;11.13;100.00;94146.97;5133988;28;20241;-79
2021/07/10 02:19:53;;;;;;;36.60;19.50;;;;;;;11.14;100.00;94143.31;5133831;28;20205;-80
2021/07/10 02:22:19;;;;;;;35.40;19.63;;;;;;;11.16;100.00;94136.09;5133726;28;20193;-79
2021/07/10 02:24:45;;;;;;;36.43;19.03;;;;;;;11.11;100.00;94129.66;5133930;28;20250;-81
2021/07/10 02:27:12;;;;;;;36.60;19.53;;;;;;;11.13;100.00;94131.28;5133771;28;20224;-79
2021/07/10 02:29:40;;;;;;;34.77;18.60;;;;;;;11.04;100.00;94122.78;5133393;28;20699;-79
2021/07/10 02:32:07;;;;;;;36.03;19.80;;;;;;;11.10;100.00;94133.25;5133778;28;20197;-77
2021/07/10 02:34:34;;;;;;;38.00;19.50;;;;;;;11.10;100.00;94130.66;5133706;28;20324;-78
2021/07/10 02:37:00;;;;;;;31.67;18.30;;;;;;;11.06;100.00;94134.66;5133542;28;20197;-81
2021/07/10 02:39:27;;;;;;;37.57;18.53;;;;;;;10.98;100.00;94121.75;5133754;28;20234;-78
2021/07/10 02:41:53;;;;;;;34.53;18.33;;;;;;;10.97;100.00;94114.91;5133714;28;20193;-80
2021/07/10 02:44:20;;;;;;;40.20;19.73;;;;;;;10.96;100.00;94121.16;5133646;28;20204;-80
2021/07/10 02:46:47;;;;;;;34.60;19.33;;;;;;;10.95;100.00;94127.38;5133976;28;20221;-79
2021/07/10 02:49:14;;;;;;;37.03;19.67;;;;;;;10.95;100.00;94123.97;5133609;28;20200;-80
2021/07/10 02:51:40;;;;;;;42.77;20.40;;;;;;;10.91;100.00;94124.34;5133438;28;20200;-80
2021/07/10 02:54:07;;;;;;;40.27;19.63;;;;;;;10.82;100.00;94125.50;5133624;28;20245;-81
2021/07/10 02:56:33;;;;;;;39.87;19.80;;;;;;;10.90;100.00;94120.09;5133664;28;20201;-80
2021/07/10 02:59:00;;;;;;;38.70;18.60;;;;;;;10.88;100.00;94118.69;5133640;28;20200;-80
2021/07/10 03:01:26;;;;;;;42.27;20.67;;;;;;;10.90;100.00;94114.09;5133361;28;20605;-80
2021/07/10 03:03:54;;;;;;;39.70;19.67;;;;;;;10.88;100.00;94108.25;5133284;28;20201;-80
2021/07/10 03:06:21;;;;;;;40.00;21.10;;;;;;;10.99;100.00;94105.09;5133648;28;20201;-78
2021/07/10 03:08:47;;;;;;;34.27;19.00;;;;;;;10.95;100.00;94103.84;5133351;28;20568;-81
2021/07/10 03:11:14;;;;;;;39.07;18.30;;;;;;;10.88;100.00;94101.22;5133469;28;20196;-80
2021/07/10 03:13:41;;;;;;;34.83;18.33;;;;;;;10.92;100.00;94104.25;5133435;28;20199;-79
2021/07/10 03:16:08;;;;;;;31.23;17.87;;;;;;;10.93;100.00;94100.63;5134499;27;20193;-79
2021/07/10 03:18:35;;;;;;;33.17;18.67;;;;;;;10.92;100.00;94099.03;5136879;27;20444;-80
2021/07/10 03:21:03;;;;;;;30.10;16.50;;;;;;;10.76;100.00;94097.56;5137350;27;20196;-80
2021/07/10 03:23:30;;;;;;;31.20;18.10;;;;;;;10.82;100.00;94103.78;5137135;27;20201;-78
2021/07/10 03:25:56;;;;;;;38.20;19.13;;;;;;;10.90;100.00;94106.25;5137015;27;20201;-80
2021/07/10 03:28:23;;;;;;;30.70;17.37;;;;;;;10.93;100.00;94103.25;5136534;27;20232;-79
2021/07/10 03:30:52;;;;;;;34.83;17.23;;;;;;;10.87;100.00;94099.59;5136323;27;20639;-79
2021/07/10 03:33:19;;;;;;;38.20;18.03;;;;;;;10.86;100.00;94100.59;5136646;27;20592;-79
2021/07/10 03:35:46;;;;;;;26.00;16.23;;;;;;;10.86;100.00;94095.38;5136836;27;20562;-79
2021/07/10 03:38:16;;;;;;;29.27;16.50;;;;;;;10.82;100.00;94099.38;5137267;27;20201;-79
2021/07/10 03:40:43;;;;;;;24.80;14.67;;;;;;;10.81;100.00;94096.94;5136872;27;20200;-79
2021/07/10 03:43:10;;;;;;;31.77;16.10;;;;;;;10.78;100.00;94092.13;5136599;27;20197;-80
2021/07/10 03:45:36;;;;;;;31.20;16.20;;;;;;;10.83;100.00;94089.75;5136445;27;20197;-78
2021/07/10 03:48:04;;;;;;;24.30;14.50;;;;;;;10.80;100.00;94092.75;5136602;27;20228;-80
2021/07/10 03:50:30;;;;;;;27.10;15.30;;;;;;;10.83;100.00;94089.75;5136531;27;20196;-79
2021/07/10 03:52:57;;;;;;;26.10;14.83;;;;;;;10.86;100.00;94089.38;5136599;27;20201;-79
2021/07/10 03:55:24;;;;;;;22.53;13.67;;;;;;;10.85;100.00;94080.69;5136352;27;20205;-77
2021/07/10 03:57:51;;;;;;;22.03;13.57;;;;;;;10.89;100.00;94081.13;5136258;27;20609;-79
2021/07/10 04:00:19;;;;;;;21.53;13.33;;;;;;;10.86;100.00;94081.53;5136153;27;20246;-79
2021/07/10 04:02:46;;;;;;;26.20;13.50;;;;;;;10.91;100.00;94082.53;5136211;27;20425;-79
2021/07/10 04:05:13;;;;;;;21.50;12.90;;;;;;;10.87;100.00;94089.16;5136686;27;20197;-82
2021/07/10 04:07:40;;;;;;;21.33;12.73;;;;;;;10.92;100.00;94085.97;5136356;27;20266;-78
2021/07/10 04:10:09;;;;;;;18.90;12.13;;;;;;;10.94;100.00;94081.34;5136099;27;20208;-78
2021/07/10 04:12:37;;;;;;;21.23;12.77;;;;;;;10.97;100.00;94085.38;5136047;27;20609;-79
2021/07/10 04:15:04;;;;;;;22.13;12.67;;;;;;;10.98;100.00;94079.16;5136048;27;20639;-79
2021/07/10 04:17:32;;;;;;;18.90;12.03;;;;;;;10.98;100.00;94079.16;5135990;27;20377;-79
2021/07/10 04:19:59;;;;;;;19.53;11.80;;;;;;;10.98;100.00;94074.72;5136031;27;20246;-78
2021/07/10 04:22:26;;;;;;;17.83;11.20;;;;;;;10.98;100.00;94079.97;5135842;27;20193;-80
2021/07/10 04:24:53;;;;;;;19.27;12.00;;;;;;;11.01;100.00;94076.97;5135757;27;20667;-79
2021/07/10 04:27:20;;;;;;;22.70;11.70;;;;;;;10.98;100.00;94079.97;5134419;27;20629;-79
2021/07/10 04:29:49;;;;;;;16.43;11.57;;;;;;;11.07;100.00;94080.59;5135328;27;20699;-78
2021/07/10 04:32:15;;;;;;;20.70;10.77;;;;;;;11.08;100.00;94077.78;5135653;27;20295;-79
2021/07/10 04:34:42;;;;;;;19.20;11.47;;;;;;;11.08;100.00;94077.78;5135584;27;20647;-80
2021/07/10 04:37:08;;;;;;;19.98;12.93;;;;;;;11.14;100.00;94086.66;5134950;27;20433;-80
2021/07/10 04:39:35;;;;;;;19.07;11.30;;;;;;;11.22;100.00;94081.22;5135425;27;20663;-80
2021/07/10 04:42:01;;;;;;;20.63;11.50;;;;;;;11.30;100.00;94091.50;5135319;27;20196;-80
2021/07/10 04:44:28;;;;;;;19.47;11.63;;;;;;;11.35;100.00;94088.31;5135326;27;20196;-79
2021/07/10 04:46:56;;;;;;;18.53;11.07;;;;;;;11.42;100.00;94089.16;5135548;27;20226;-80
2021/07/10 04:49:22;;;;;;;21.20;11.50;;;;;;;11.53;100.00;94086.97;5135127;27;20691;-79
2021/07/10 04:51:49;;;;;;;16.77;10.80;;;;;;;11.57;100.00;94090.78;5135697;27;20208;-80
2021/07/10 04:54:15;;;;;;;14.57;9.67;;;;;;;11.64;100.00;94092.41;5135147;27;20197;-80
2021/07/10 04:56:42;;;;;;;13.97;9.30;;;;;;;11.74;100.00;94085.97;5135051;27;20204;-81
2021/07/10 04:59:08;;;;;;;14.87;9.70;;;;;;;11.91;100.00;94084.63;5135150;27;20205;-80
2021/07/10 05:01:35;;;;;;;18.20;10.23;;;;;;;12.08;100.00;94092.88;5135811;27;20200;-79
2021/07/10 05:04:03;;;;;;;12.87;9.20;;;;;;;12.30;100.00;94087.41;5135219;27;20201;-80
2021/07/10 05:06:29;;;;;;;14.70;9.07;;;;;;;12.47;100.00;94090.41;5134973;27;20209;-78
2021/07/10 05:08:56;;;;;;;13.23;8.10;;;;;;;12.56;100.00;94078.72;5134709;27;20232;-80
2021/07/10 05:11:22;;;;;;;16.60;7.67;;;;;;;12.69;100.00;94083.94;5135230;27;20208;-79
2021/07/10 05:13:49;;;;;;;11.23;7.63;;;;;;;12.81;100.00;94078.84;5135128;27;20197;-80
2021/07/10 05:16:15;;;;;;;10.70;6.93;;;;;;;13.00;100.00;94084.25;5134869;27;20193;-79
2021/07/10 05:18:41;;;;;;;10.07;6.90;;;;;;;13.12;100.00;94090.44;5135040;27;20201;-79
2021/07/10 05:21:09;;;;;;;10.87;6.33;;;;;;;13.24;100.00;94093.19;5134771;27;20197;-80
2021/07/10 05:23:36;;;;;;;13.77;7.67;;;;;;;13.41;100.00;94093.56;5136422;27;20283;-81
2021/07/10 05:26:02;;;;;;;10.18;6.75;;;;;;;13.62;100.00;94088.00;5135155;27;20199;-81
2021/07/10 05:28:29;;;;;;;7.70;6.32;;;;;;;13.80;100.00;94089.88;5135256;27;20228;-81
2021/07/10 05:30:55;;;;;;;7.35;5.65;;;;;;;14.18;100.00;94096.09;5134696;27;20200;-81
2021/07/10 05:33:22;;;;;;;11.57;6.10;;;;;;;14.22;100.00;94092.00;5134525;27;20199;-79
2021/07/10 05:35:48;;;;;;;10.02;6.28;;;;;;;14.31;100.00;94090.72;5134369;27;20683;-80
2021/07/10 05:38:17;;;;;;;8.43;5.65;;;;;;;14.11;100.00;94087.47;5133720;27;20208;-80
2021/07/10 05:40:44;;;;;;;6.55;4.95;;;;;;;14.17;100.00;94079.53;5134406;27;20723;-81
2021/07/10 05:43:11;;;;;;;7.10;4.85;;;;;;;14.36;100.00;94083.00;5134603;27;20208;-81
2021/07/10 05:45:37;;;;;;;8.98;5.25;;;;;;;15.01;100.00;94073.88;5134392;27;20200;-79
2021/07/10 05:48:06;;;;;;;8.85;4.72;;;;;;;16.47;100.00;94072.84;5115726;27;20277;-80
2021/07/10 05:50:33;;;;;;;6.20;4.40;;;;;;;17.68;100.00;94073.94;5134280;27;20548;-80
2021/07/10 05:52:59;;;;;;;5.57;4.03;;;;;;;18.21;100.00;94079.88;5135358;27;20200;-80
2021/07/10 05:55:27;;;;;;;4.53;3.30;;;;;;;18.94;100.00;94074.63;5134524;27;20201;-80
2021/07/10 05:57:53;;;;;;;4.30;3.20;;;;;;;20.06;100.00;94071.59;5134201;27;20200;-81
2021/07/10 06:00:20;;;;;;;5.00;3.00;;;;;;;20.77;100.00;94075.88;5134164;27;20200;-80
2021/07/10 06:02:46;;;;;;;5.43;2.40;;;;;;;21.67;94.90;94078.41;5134040;27;20204;-80
2021/07/10 06:05:13;;;;;;;3.55;2.20;;;;;;;22.46;86.05;94073.69;5132755;27;20429;-81
2021/07/10 06:07:39;;;;;;;7.13;2.45;;;;;;;22.76;80.76;94077.41;5133952;27;20197;-80
2021/07/10 06:10:09;;;;;;;4.05;2.25;;;;;;;22.62;78.26;94071.03;5134108;28;20196;-80
2021/07/10 06:12:37;;;;;;;4.63;2.03;;;;;;;22.26;75.62;94076.34;5134022;27;20212;-80
2021/07/10 06:15:06;;;;;;;4.05;2.28;;;;;;;22.82;80.97;94071.00;5133963;28;20226;-80
2021/07/10 06:17:32;;;;;;;4.50;2.25;;;;;;;23.19;77.36;94072.53;5133926;28;20201;-81
2021/07/10 06:19:59;;;;;;;4.63;2.00;;;;;;;23.24;78.63;94069.03;5133663;28;20208;-80
2021/07/10 06:22:25;;;;;;;4.20;2.13;;;;;;;23.00;78.74;94074.16;5133987;28;20245;-80
2021/07/10 06:24:52;;;;;;;2.97;2.13;;;;;;;22.41;83.01;94068.38;5133772;28;20201;-80
2021/07/10 06:27:19;;;;;;;2.60;2.17;;;;;;;22.65;75.18;94062.50;5133857;28;20196;-80
2021/07/10 06:29:46;;;;;;;2.20;1.83;;;;;;;22.26;76.12;94065.72;5133458;28;20334;-80
2021/07/10 06:32:17;;;;;;;2.88;2.00;;;;;;;21.50;78.93;94075.16;5133736;28;20212;-80
2021/07/10 06:34:45;;;;;;;2.42;2.13;;;;;;;20.78;80.92;94074.81;5133867;28;20257;-80
2021/07/10 06:37:16;;;;;;;4.65;2.40;;;;;;;20.21;85.33;94070.94;5133816;28;20200;-80
2021/07/10 06:39:46;;;;;;;3.63;2.47;;;;;;;19.99;88.34;94079.75;5133740;28;20200;-80
2021/07/10 06:42:12;;;;;;;4.45;2.20;;;;;;;20.10;90.03;94070.03;5133567;28;20235;-80
2021/07/10 06:44:42;;;;;;;2.88;2.13;;;;;;;19.66;90.43;94068.28;5133489;28;20193;-79
2021/07/10 06:47:13;;;;;;;3.75;2.20;;;;;;;19.88;89.82;94064.81;5133793;28;20197;-80
2021/07/10 06:49:39;;;;;;;3.10;2.38;;;;;;;19.70;92.57;94064.09;5133594;27;20224;-80
2021/07/10 06:52:07;;;;;;;3.72;2.70;;;;;;;19.73;92.39;94070.72;5136515;27;20204;-79
2021/07/10 06:54:34;;;;;;;4.32;2.50;;;;;;;19.91;88.32;94065.09;5137206;27;20208;-80
2021/07/10 06:57:02;;;;;;;4.90;2.50;;;;;;;20.00;86.48;94064.66;5137398;27;20651;-80
2021/07/10 06:59:28;;;;;;;2.70;2.20;;;;;;;20.03;84.28;94064.16;5137536;27;20224;-80
2021/07/10 07:01:55;;;;;;;2.90;2.50;;;;;;;19.53;91.46;94055.44;5137523;27;20219;-80
2021/07/10 07:04:23;;;;;;;3.28;2.42;;;;;;;19.92;88.26;94057.97;5137460;27;20201;-80
2021/07/10 07:06:52;;;;;;;3.85;2.55;;;;;;;19.86;88.29;94049.16;5137392;27;20201;-81
2021/07/10 07:09:21;;;;;;;3.65;2.58;;;;;;;19.45;92.77;94054.03;5137202;27;20235;-81
2021/07/10 07:11:48;;;;;;;4.30;2.60;;;;;;;19.31;93.12;94039.59;5137141;27;20193;-80
2021/07/10 07:14:15;;;;;;;6.10;2.92;;;;;;;18.86;94.03;94042.22;5137930;27;20666;-80
2021/07/10 07:16:44;;;;;;;3.90;2.90;;;;;;;18.88;93.96;94041.97;5137337;27;20201;-80
2021/07/10 07:19:10;;;;;;;3.45;2.95;;;;;;;18.76;100.00;94042.06;5137099;27;20197;-79
2021/07/10 07:21:38;;;;;;;4.72;2.58;;;;;;;18.69;96.97;94041.44;5137061;27;20207;-80
2021/07/10 07:24:06;;;;;;;4.45;3.22;;;;;;;18.54;98.03;94039.41;5136892;27;20667;-80
2021/07/10 07:26:33;;;;;;;3.97;2.88;;;;;;;18.47;99.28;94042.22;5136940;27;20211;-79
2021/07/10 07:28:59;;;;;;;3.35;2.80;;;;;;;18.66;96.54;94037.44;5137612;27;20255;-83
2021/07/10 07:31:29;;;;;;;4.53;3.10;;;;;;;18.45;100.00;94036.38;5142760;27;20197;-82
2021/07/10 07:33:57;;;;;;;3.85;2.65;;;;;;;18.55;100.00;94035.72;5148432;27;20208;-80
2021/07/10 07:36:24;;;;;;;4.80;2.72;;;;;;;18.59;100.00;94042.09;5142937;27;20627;-80
2021/07/10 07:38:54;;;;;;;4.40;3.03;;;;;;;18.84;100.00;94040.88;5143438;27;20605;-83
2021/07/10 07:41:20;;;;;;;4.22;2.80;;;;;;;19.00;100.00;94036.56;5138921;27;20193;-82
2021/07/10 07:43:47;;;;;;;6.10;3.10;;;;;;;19.14;100.00;94031.72;5136921;27;20196;-81
2021/07/10 07:46:15;;;;;;;3.15;2.80;;;;;;;19.17;99.00;94034.66;5138693;27;20200;-83
2021/07/10 07:48:43;;;;;;;4.15;3.25;;;;;;;18.88;100.00;94034.03;5137166;27;20224;-83
2021/07/10 07:51:10;;;;;;;6.30;2.97;;;;;;;19.09;96.84;94029.81;5140673;27;20200;-81
2021/07/10 07:53:37;;;;;;;4.50;3.00;;;;;;;19.19;100.00;94021.97;5142343;27;20208;-82
2021/07/10 07:56:06;;;;;;;3.78;2.58;;;;;;;19.35;96.31;94022.97;5140209;27;20224;-83
2021/07/10 07:58:32;;;;;;;5.18;2.65;;;;;;;19.45;97.94;94016.16;5140609;27;20224;-82
2021/07/10 08:00:58;;;;;;;3.90;2.67;;;;;;;19.64;95.22;94024.56;5139801;27;20208;-82
2021/07/10 08:03:25;;;;;;;4.05;3.08;;;;;;;19.78;94.04;94017.81;5137425;27;20196;-82
2021/07/10 08:05:54;;;;;;;3.30;2.80;;;;;;;20.02;95.92;94015.66;5139799;27;20197;-83
2021/07/10 08:08:21;;;;;;;3.65;2.80;;;;;;;20.17;91.34;94011.50;5124191;27;20965;-83
2021/07/10 08:10:48;;;;;;;3.85;2.33;;;;;;;20.11;89.81;94008.03;5115360;28;20291;-83
2021/07/10 08:13:16;;;;;;;4.50;2.70;;;;;;;19.98;92.28;94014.53;5115829;28;20202;-83
2021/07/10 08:15:47;;;;;;;4.43;3.00;;;;;;;19.81;92.30;94009.38;5117654;28;20201;-82
2021/07/10 08:18:18;;;;;;;5.25;2.85;;;;;;;19.62;95.20;94010.75;5116599;28;20197;-83
2021/07/10 08:20:47;;;;;;;5.00;3.15;;;;;;;19.57;95.16;94009.66;5115179;28;20201;-83
2021/07/10 08:23:14;;;;;;;6.38;2.63;;;;;;;19.62;97.57;94008.91;5116428;28;20193;-85
2021/07/10 08:25:42;;;;;;;6.25;2.78;;;;;;;19.72;95.35;94005.56;5116092;28;20233;-86
2021/07/10 08:28:09;;;;;;;4.85;2.90;;;;;;;19.46;96.05;94001.88;5120144;27;20196;-85
2021/07/10 08:30:37;;;;;;;6.22;3.10;;;;;;;19.14;98.60;94010.56;5137712;27;20224;-87
2021/07/10 08:33:04;;;;;;;7.72;3.30;;;;;;;19.14;100.00;94006.03;5137349;27;20222;-87
2021/07/10 08:35:31;;;;;;;4.05;2.88;;;;;;;19.30;95.47;94004.38;5136665;27;20209;-83
2021/07/10 08:37:57;;;;;;;4.63;3.00;;;;;;;19.27;97.10;94001.41;5136563;27;20196;-85
2021/07/10 08:40:24;;;;;;;5.43;3.33;;;;;;;19.14;96.96;94005.25;5136190;27;20677;-85
2021/07/10 08:42:51;;;;;;;4.43;2.55;;;;;;;19.10;95.77;94004.13;5136170;27;20200;-86
2021/07/10 08:45:18;;;;;;;3.33;2.40;;;;;;;19.10;96.63;93997.00;5135641;27;20659;-84
2021/07/10 08:47:46;;;;;;;6.28;3.42;;;;;;;19.21;96.62;93990.75;5135631;27;20655;-85
2021/07/10 08:50:14;;;;;;;8.35;3.47;;;;;;;19.17;98.31;93980.94;5135777;27;20225;-85
2021/07/10 08:52:41;;;;;;;7.03;3.30;;;;;;;19.25;99.45;93984.97;5136547;27;20616;-86
2021/07/10 08:55:10;;;;;;;4.53;3.10;;;;;;;19.09;97.31;93986.69;5136332;27;20204;-85
2021/07/10 08:57:37;;;;;;;4.30;2.92;;;;;;;19.34;94.77;94000.16;5135377;27;20196;-85
2021/07/10 09:00:07;;;;;;;5.32;2.92;;;;;;;19.38;99.08;93998.63;5136791;27;20204;-84
2021/07/10 09:02:34;;;;;;;6.50;4.03;;;;;;;19.39;99.53;93996.78;5136992;27;20197;-86
2021/07/10 09:05:04;;;;;;;4.82;3.15;;;;;;;19.50;97.22;93998.47;5136307;27;20261;-84
2021/07/10 09:07:31;;;;;;;6.20;2.72;;;;;;;19.58;90.85;93995.38;5137471;27;20204;-86
2021/07/10 09:09:58;;;;;;;5.13;2.97;;;;;;;19.63;91.49;93991.16;5135139;27;20460;-84
2021/07/10 09:12:28;;;;;;;5.03;2.85;;;;;;;19.60;93.59;93987.97;5135753;27;20581;-86
2021/07/10 09:14:55;;;;;;;7.80;3.33;;;;;;;19.92;91.75;93995.16;5138520;27;20201;-87
2021/07/10 09:17:24;;;;;;;6.15;3.45;;;;;;;20.50;90.94;93992.63;5136148;27;20203;-85
2021/07/10 09:19:54;;;;;;;7.82;3.65;;;;;;;20.81;89.09;94000.78;5136701;27;20246;-85
2021/07/10 09:22:30;;;;;;;6.25;3.13;;;;;;;20.86;84.96;93998.13;5135443;27;20197;-84
2021/07/10 09:24:57;;;;;;;4.43;3.10;;;;;;;20.57;84.90;93988.94;5135236;27;20204;-85
2021/07/10 09:27:24;;;;;;;5.05;2.83;;;;;;;20.45;86.84;93983.84;5135081;27;20192;-86
2021/07/10 09:29:51;;;;;;;6.70;2.95;;;;;;;20.33;90.29;93990.16;5135329;27;20235;-85
2021/07/10 09:32:20;;;;;;;5.00;3.10;;;;;;;20.31;90.07;93986.94;5135373;27;20212;-85
2021/07/10 09:34:50;;;;;;;5.57;3.05;;;;;;;20.64;88.50;93973.63;5136139;27;20200;-84
2021/07/10 09:37:18;;;;;;;5.55;3.25;;;;;;;20.69;90.91;93976.31;5136036;27;20667;-85
2021/07/10 09:39:55;;;;;;;5.90;3.63;;;;;;;20.86;91.45;93970.81;5135966;27;20197;-83
2021/07/10 09:42:25;;;;;;;13.02;3.60;;;;;;;20.32;89.37;93961.25;5135662;27;20196;-84
2021/07/10 09:44:55;;;;;;;3.63;2.97;;;;;;;20.74;84.76;93967.59;5136607;27;20199;-85
2021/07/10 09:47:26;;;;;;;4.45;2.50;;;;;;;20.90;82.01;93966.59;5136251;27;20600;-84
2021/07/10 09:49:52;;;;;;;4.78;2.72;;;;;;;21.01;84.78;93967.41;5137313;27;20228;-85
2021/07/10 09:52:21;;;;;;;3.53;2.80;;;;;;;21.21;85.08;93953.41;5137643;27;20265;-86
2021/07/10 09:54:52;;;;;;;7.68;2.90;;;;;;;21.43;85.10;93948.66;5135860;27;20204;-85
2021/07/10 09:57:20;;;;;;;6.72;3.28;;;;;;;21.38;82.67;93951.31;5134929;27;20723;-85
2021/07/10 09:59:49;;;;;;;6.10;3.53;;;;;;;20.96;83.13;93959.44;5135296;27;20230;-85
2021/07/10 10:02:24;;;;;;;7.50;3.33;;;;;;;20.98;83.63;93957.31;5135748;27;20204;-83
2021/07/10 10:04:51;;;;;;;6.45;3.25;;;;;;;20.83;85.21;93963.34;5134690;27;20200;-82
2021/07/10 10:07:19;;;;;;;3.25;2.60;;;;;;;20.91;83.81;93951.47;5134451;27;20204;-84
2021/07/10 10:09:47;;;;;;;3.38;2.72;;;;;;;20.80;85.14;93951.44;5133943;27;20232;-82
2021/07/10 10:12:18;;;;;;;3.65;2.65;;;;;;;20.94;84.54;93954.38;5134496;27;20211;-81
2021/07/10 10:14:47;;;;;;;4.90;2.78;;;;;;;21.39;81.50;93947.59;5134117;28;20261;-84
2021/07/10 10:17:15;;;;;;;6.90;2.75;;;;;;;21.82;80.76;93939.41;5134691;28;20645;-84
2021/07/10 10:19:43;;;;;;;5.45;2.35;;;;;;;21.99;74.46;93939.13;5135934;28;20227;-85
2021/07/10 10:22:12;;;;;;;4.30;2.53;;;;;;;21.80;74.40;93936.22;5134997;28;20283;-85
2021/07/10 10:24:41;;;;;;;5.47;2.85;;;;;;;21.51;79.70;93934.06;5134609;27;20216;-88
2021/07/10 10:27:09;;;;;;;3.22;2.60;;;;;;;21.52;79.60;93929.59;5137237;27;20224;-82
2021/07/10 10:29:38;;;;;;;5.10;2.78;;;;;;;21.75;78.89;93930.88;5138228;27;20236;-84
2021/07/10 10:32:07;;;;;;;5.70;2.55;;;;;;;21.51;79.33;93927.97;5138698;27;20207;-83
2021/07/10 10:34:34;;;;;;;5.20;2.70;;;;;;;21.75;78.30;93929.03;5140083;27;20232;-87
2021/07/10 10:37:01;;;;;;;3.13;2.10;;;;;;;22.48;75.13;93927.91;5140043;27;20196;-84
2021/07/10 10:39:29;;;;;;;3.88;2.53;;;;;;;22.35;76.53;93921.28;5139329;27;20200;-87
2021/07/10 10:41:59;;;;;;;3.65;3.00;;;;;;;21.71;79.98;93922.66;5139736;27;20316;-84
2021/07/10 10:44:33;;;;;;;4.93;2.90;;;;;;;22.05;82.99;93921.28;5139783;27;20208;-81
2021/07/10 10:47:01;;;;;;;7.97;3.20;;;;;;;21.67;79.60;93921.59;5138636;27;20235;-82
2021/07/10 10:49:52;;;;;;;6.50;2.80;;;;;;;21.56;81.72;93920.00;5139513;27;20269;-87
2021/07/10 10:52:33;;;;;;;3.75;2.67;;;;;;;21.60;82.50;93905.13;5139221;27;20212;-85
2021/07/10 10:55:10;;;;;;;3.03;2.50;;;;;;;21.69;78.62;93911.50;5141821;27;20204;-83
2021/07/10 10:57:54;;;;;;;3.03;2.53;;;;;;;21.91;78.26;93913.09;5141805;27;20707;-83
2021/07/10 11:00:31;;;;;;;4.05;2.38;;;;;;;22.13;78.16;93913.59;5141642;27;20197;-85
2021/07/10 11:03:04;;;;;;;5.28;2.50;;;;;;;21.87;78.89;93910.16;5138477;27;20207;-82
2021/07/10 11:05:52;;;;;;;5.15;2.45;;;;;;;21.76;76.32;93909.34;5136284;27;20201;-84
2021/07/10 11:08:31;;;;;;;2.92;2.33;;;;;;;21.85;78.97;93912.31;5124950;27;20233;-84
2021/07/10 11:11:24;;;;;;;3.65;2.50;;;;;;;22.09;79.41;93901.09;5134409;27;20253;-85
2021/07/10 11:14:08;;;;;;;4.10;2.55;;;;;;;22.27;79.32;93903.19;5128022;27;20197;-84
2021/07/10 11:16:35;;;;;;;4.80;2.17;;;;;;;22.99;81.38;93891.47;5128969;27;20566;-81
2021/07/10 11:19:05;;;;;;;3.80;2.10;;;;;;;23.24;74.15;93894.00;5129725;27;20192;-81
2021/07/10 11:21:48;;;;;;;1.77;1.60;;;;;;;23.20;69.09;93877.00;5134526;27;20206;-83
2021/07/10 11:24:26;;;;;;;2.92;1.73;;;;;;;22.76;64.01;93880.41;5133028;27;20196;-83
2021/07/10 11:27:24;;;;;;;2.13;1.67;;;;;;;23.02;67.34;93877.59;5134699;27;20195;-83